香港 の空港の天気 - METARとTAF

香港国際空港 ( VHHH / HKG ) - 香港 赤リョウ角
飛行場実況気象(Metar)
観測時間09/29 12:00 HKT (09/29 04:00 UTC)
風向・風速東 7m/s
視程10km以上
天気現象
少しの雲 雲底高度 490m
気温29℃
湿度74%
気圧1009hPa
METARVHHH 290400Z 10014KT 9999 FEW016 29/24 Q1009 NOSIG
過去の天気等 Google飛行場航空写真 Wunderground天気予報

過去48時間のMETAR

飛行場予報(TAF)
発表時間: 9/29 07:00 HKT (9/28 23:00 UTC)
予報対象時間: 29日8時 HKT ~ 30日14時 HKT
風向・風速東 5m/s
視程10km以上
少しの雲 雲底高度 610m
29日10時 HKT ~ 29日18時 HKT に一時的に
視程4000m
天気現象しゅう雨
少しの積乱雲 雲底高度 300m
全天の4割程度の雲 雲底高度 610m
30日8時 HKT ~ 30日14時 HKT に一時的に
視程4000m
天気現象しゅう雨
少しの積乱雲 雲底高度 300m
全天の4割程度の雲 雲底高度 610m
TAF VHHH 282300Z 2900/3006 10010KT 9999 FEW020 TX31/2906Z TX30/3006Z TN27/2922Z
TEMPO 2902/2910 4000 SHRA FEW010CB SCT020
TEMPO 3000/3006 4000 SHRA FEW010CB SCT020